Thursday, November 27, 2014, 12:17 AM EST

KFDK, Frederick, Frederick Municipal Airport

Location: Frederick, MD, United States Lat: 39.417
Local Time: 12:17 AM EST ( 5:17 GMT) Lon: -77.374
Time Zone: US/Eastern Elev: 301 ft

Show me the last for .
Show Decoded

2014-11-27 00:10 METAR KFDK 270510Z AUTO 00000KT 10SM OVC070 02/00 A3002 RMK AO2 =
2014-11-26 23:50 METAR KFDK 270450Z AUTO 00000KT 10SM OVC070 02/00 A3003 RMK AO2 =
2014-11-26 23:30 METAR KFDK 270430Z AUTO 00000KT 10SM SCT019 OVC060 02/00 A3002 =
2014-11-26 23:10 METAR KFDK 270410Z AUTO 27003KT 10SM BKN019 OVC060 02/00 A3003 RMK AO2 =
2014-11-26 22:50 METAR KFDK 270350Z AUTO 27003KT 10SM SCT019 BKN060 BKN090 02/00 A3003 RMK AO2 =
2014-11-26 22:30 METAR KFDK 270330Z AUTO 30004KT 10SM SCT021 SCT095 BKN120 02/00 A3002 RMK AO2 =
2014-11-26 22:10 METAR KFDK 270310Z AUTO 29004KT 10SM BKN021 OVC110 02/00 A3002 RMK AO2 =
2014-11-26 21:50 METAR KFDK 270250Z AUTO 28004KT 10SM SCT020 SCT025 OVC100 02/00 A3002 RMK AO2 =
2014-11-26 21:30 METAR KFDK 270230Z AUTO 00000KT 5SM BR BKN022 OVC100 01/00 A3000 RMK AO2 =
2014-11-26 21:10 METAR KFDK 270210Z AUTO 00000KT 5SM BR SCT009 OVC022 01/00 A3000 RMK AO2 =
2014-11-26 20:50 METAR KFDK 270150Z AUTO 00000KT 7SM OVC022 02/00 A2999 RMK AO2 =
2014-11-26 20:30 METAR KFDK 270130Z AUTO 00000KT 10SM BKN022 OVC043 02/00 A3000 RMK AO2 =
2014-11-26 20:10 METAR KFDK 270110Z AUTO 26003KT 5SM BR SCT022 BKN090 OVC110 01/00 A2999 RMK AO2
                 =
2014-11-26 19:50 METAR KFDK 270050Z AUTO 00000KT 10SM SCT070 OVC100 02/00 A2999 RMK AO2 =
2014-11-26 18:55 METAR KFDK 262355Z 00000KT 10SM OVC095 02/00 A2999 =
2014-11-26 17:45 METAR KFDK 262245Z 00000KT 7SM -RA BKN020 OVC050 02/00 A3000 =
2014-11-26 16:45 METAR KFDK 262145Z 00000KT 5SM -RA BKN020 BKN030 OVC055 02/00 A2999 =
2014-11-26 15:45 METAR KFDK 262045Z VRB04KT 5SM -RA 02/00 A2999 =
2014-11-26 14:45 METAR KFDK 261945Z 02005KT 21/2SM SN OVC007 02/00 A2998 =
2014-11-26 13:45 METAR KFDK 261845Z 36006KT 4SM SN OVC005 02/00 A2998 =
2014-11-26 12:45 METAR KFDK 261745Z VRB04KT 2SM -SN OVC003 02/M01 A3002 =
2014-11-26 11:45 METAR KFDK 261645Z 02007KT 1SM -SN OVC003 02/M01 A3004 =
2014-11-26 10:55 METAR KFDK 261555Z 01005KT 3/4SM -SN OVC003 02/M01 A3009 =
2014-11-26 09:45 METAR KFDK 261445Z 00000KT 2 1/2SM SN OVC009 03/00 A3013 =
2014-11-26 08:50 METAR KFDK 261350Z 05007KT 3SM RA OVC007 04/02 A3012 =
2014-11-26 08:08 METAR KFDK 261308Z 03009KT 2 1/2SM RA OVC009 04/02 A3009 =
2014-11-26 07:47 METAR KFDK 261247Z 35006KT 2 1/2SM RA BKN011 OVC033 05/02 A3013 =
2014-11-26 06:47 METAR KFDK 261147Z 02007KT 5SM RA OVC033 05/02 A3012 =
2014-11-26 05:30 METAR KFDK 261030Z AUTO 36008KT 10SM RA OVC035 05/00 A3012 RMK AO2 P0001 =
2014-11-26 05:25 METAR KFDK 261025Z AUTO 36011KT 10SM -RA OVC035 05/00 A3011 RMK AO2 P0001 =
2014-11-26 05:05 METAR KFDK 261005Z AUTO 02008KT 10SM -RA BKN037 OVC047 06/00 A3012 RMK AO2 =
2014-11-26 04:45 METAR KFDK 260945Z AUTO 01011KT 10SM -RA OVC049 06/00 A3011 RMK AO2 =
2014-11-26 04:25 METAR KFDK 260925Z AUTO 36010KT 10SM -RA OVC047 06/00 A3012 RMK AO2 =
2014-11-26 04:05 METAR KFDK 260905Z AUTO 01003KT 10SM -RA SCT041 OVC050 06/00 A3014 RMK AO2 =
2014-11-26 03:45 METAR KFDK 260845Z AUTO 02008KT 10SM -DZ BKN049 OVC065 06/00 A3015 RMK AO2 =
2014-11-26 03:25 METAR KFDK 260825Z AUTO 36009KT 10SM OVC060 06/00 A3016 RMK AO2 =
2014-11-26 03:05 METAR KFDK 260805Z AUTO 35007KT 10SM SCT070 BKN080 OVC095 06/00 A3018 RMK AO2 =
2014-11-26 02:45 METAR KFDK 260745Z AUTO 35006KT 10SM OVC100 05/00 A3017 RMK AO2 =
2014-11-26 02:25 METAR KFDK 260725Z AUTO 00000KT 10SM OVC100 05/00 A3015 RMK AO2 =
2014-11-26 02:05 METAR KFDK 260705Z AUTO 00000KT 10SM SCT085 OVC110 05/00 A3017 =
2014-11-26 01:45 METAR KFDK 260645Z AUTO 00000KT 10SM BKN110 05/00 A3019 RMK AO2 =
2014-11-26 01:25 METAR KFDK 260625Z AUTO 35003KT 10SM SCT120 05/00 A3020 RMK AO2 =
2014-11-26 01:05 METAR KFDK 260605Z AUTO 00000KT 10SM CLR 05/00 A3018 =
2014-11-26 00:45 METAR KFDK 260545Z AUTO 00000KT 10SM CLR 05/00 A3019 RMK AO2 =
2014-11-26 00:25 METAR KFDK 260525Z AUTO 00000KT 10SM CLR 05/01 A3018 RMK AO2 =

Support USWX by starting your Amazon purchase here.